»·PEaware :: WAT234 KDEN-KLAS

WAT234 :: KDEN-KLAS

FLIGHT INFORMATION

Flight Status: Arrived
Operator:
Walker Air Transport
More flights by this operator :: More flights under this callsign
Pilot: Eduardo Elias G. (24838)
Aircraft: Boeing 747-8
(B748)
More flights by this aircraft type
Origin: KDEN Denver Intl
United States
Destination: KLAS McCarran Intl
United States
More flights between these airports :: More routes between these airports
Route: +CONNR7 WERNR ZAKRY GGAPP SITEE4
File this flight plan on PilotEdge
Remarks:
Altitude:
(Current/Filed)
38,000ft
Speed:
(Current/Filed)
515kts
Departed: 11-Sep-20 10:03 PM
Arrived: 11-Sep-20 11:24 PM
Distance/Time
Traveled:
545nm/1:21
Distance/Time
To Go:
Arrived

Flight Plot

Page will automatically refresh every two minutes.

Flight plan parsing failed; only flown route is shown


Map Options




Map Legend


Flown Route
Filed Route
Departure Airport
Arrival Airport
Navaid (VOR, NDB)
Fix

Horizontal Profiles

Position Reports

Time Latitude Longitude Heading Altitude Ground
Speed
11-Sep-20 20:51 39.858209 -104.674626 0 5444ft 0kts
11-Sep-20 20:52 39.858209 -104.674626 0 5444ft 0kts
11-Sep-20 20:53 39.858209 -104.674626 0 5444ft 0kts
11-Sep-20 20:54 39.858209 -104.674626 0 5444ft 0kts
11-Sep-20 20:55 39.858209 -104.674626 0 5444ft 0kts
11-Sep-20 20:56 39.858209 -104.674626 0 5444ft 0kts
11-Sep-20 20:57 39.858209 -104.674626 0 5444ft 0kts
11-Sep-20 20:58 39.858209 -104.674626 0 5444ft 0kts
11-Sep-20 20:59 39.858209 -104.674626 0 5444ft 0kts
11-Sep-20 21:00 39.858209 -104.674626 0 5444ft 0kts
11-Sep-20 21:01 39.858209 -104.674626 0 5444ft 0kts
11-Sep-20 21:02 39.858209 -104.674626 0 5444ft 0kts
11-Sep-20 21:03 39.858209 -104.674626 0 5444ft 0kts
11-Sep-20 21:04 39.858209 -104.674626 0 5444ft 0kts
11-Sep-20 21:05 39.858209 -104.674626 0 5444ft 0kts
11-Sep-20 21:06 39.858209 -104.674626 0 5444ft 0kts
11-Sep-20 21:07 39.858209 -104.674626 0 5444ft 0kts
11-Sep-20 21:08 39.858209 -104.674626 0 5444ft 0kts
11-Sep-20 21:09 39.858209 -104.674626 0 5444ft 0kts
11-Sep-20 21:10 39.858209 -104.674626 0 5444ft 0kts
11-Sep-20 21:11 39.858209 -104.674626 0 5444ft 0kts
11-Sep-20 21:12 39.858209 -104.674626 0 5444ft 0kts
11-Sep-20 21:13 39.858209 -104.674626 0 5444ft 0kts
11-Sep-20 21:14 39.858209 -104.674626 0 5444ft 0kts
11-Sep-20 21:15 39.858209 -104.674626 0 5444ft 0kts
11-Sep-20 21:16 39.858209 -104.674626 0 5444ft 0kts
11-Sep-20 21:17 39.858209 -104.674626 0 5444ft 0kts
11-Sep-20 21:18 39.858209 -104.674626 0 5444ft 0kts
11-Sep-20 21:19 39.858209 -104.674626 0 5444ft 0kts
11-Sep-20 21:20 39.858209 -104.674626 0 5444ft 0kts
11-Sep-20 21:21 39.858209 -104.674626 0 5444ft 0kts
11-Sep-20 21:22 39.858209 -104.674626 0 5444ft 0kts
11-Sep-20 21:23 39.858209 -104.674626 0 5444ft 0kts
11-Sep-20 21:24 39.858209 -104.674626 0 5444ft 0kts
11-Sep-20 21:25 39.858209 -104.674626 0 5444ft 0kts
11-Sep-20 21:26 39.858209 -104.674626 0 5444ft 0kts
11-Sep-20 21:27 39.858209 -104.674626 0 5444ft 0kts
11-Sep-20 21:28 39.858209 -104.674626 0 5444ft 0kts
11-Sep-20 21:29 39.858126 -104.674626 0 5444ft 2kts
11-Sep-20 21:30 39.857461 -104.674524 307 5444ft 2kts
11-Sep-20 21:31 39.857387 -104.673680 270 5444ft 2kts
11-Sep-20 21:32 39.857386 -104.673637 270 5444ft 0kts
11-Sep-20 21:33 39.857386 -104.673637 270 5444ft 0kts
11-Sep-20 21:34 39.857386 -104.673637 270 5444ft 0kts
11-Sep-20 21:35 39.857386 -104.673637 270 5444ft 0kts
11-Sep-20 21:36 39.857386 -104.673637 270 5444ft 0kts
11-Sep-20 21:37 39.857386 -104.673637 270 5444ft 0kts
11-Sep-20 21:38 39.857386 -104.673637 270 5444ft 0kts
11-Sep-20 21:39 39.857386 -104.673637 270 5444ft 0kts
11-Sep-20 21:40 39.857386 -104.673637 270 5444ft 0kts
11-Sep-20 21:41 39.857386 -104.673637 270 5444ft 0kts
11-Sep-20 21:42 39.857386 -104.673637 270 5444ft 0kts
11-Sep-20 21:43 39.857386 -104.673637 270 5444ft 0kts
11-Sep-20 21:44 39.857386 -104.673637 270 5444ft 0kts
11-Sep-20 21:45 39.857386 -104.673637 270 5444ft 0kts
11-Sep-20 21:46 39.857386 -104.673637 270 5444ft 0kts
11-Sep-20 21:47 39.857386 -104.673637 270 5444ft 0kts
11-Sep-20 21:48 39.857386 -104.673665 270 5444ft 2kts
11-Sep-20 21:49 39.857403 -104.675240 270 5444ft 4kts
11-Sep-20 21:50 39.857417 -104.676587 270 5444ft 3kts
11-Sep-20 21:51 39.857424 -104.677330 270 5444ft 0kts
11-Sep-20 21:53 39.857424 -104.677331 270 5444ft 0kts
11-Sep-20 21:54 39.857428 -104.677631 270 5444ft 8kts
11-Sep-20 21:55 39.856774 -104.681553 279 5444ft 11kts
11-Sep-20 21:56 39.855755 -104.683987 181 5444ft 9kts
11-Sep-20 21:57 39.853202 -104.684004 181 5444ft 11kts
11-Sep-20 21:58 39.848319 -104.684069 181 5444ft 22kts
11-Sep-20 21:59 39.842622 -104.684121 180 5444ft 11kts
11-Sep-20 22:00 39.841839 -104.684142 181 5444ft 8kts
11-Sep-20 22:01 39.840660 -104.684796 268 5444ft 0kts
11-Sep-20 22:02 39.840660 -104.684797 268 5444ft 0kts
11-Sep-20 22:03 39.841078 -104.720569 272 5628ft 191kts
11-Sep-20 22:04 39.843228 -104.792075 267 8106ft 217kts
11-Sep-20 22:05 39.842864 -104.885121 269 9651ft 270kts
11-Sep-20 22:06 39.827318 -104.988484 256 10919ft 340kts
11-Sep-20 22:07 39.801461 -105.112743 259 14604ft 364kts
11-Sep-20 22:08 39.774703 -105.244548 259 17915ft 388kts
11-Sep-20 22:09 39.746231 -105.384363 259 21007ft 408kts
11-Sep-20 22:09 39.721503 -105.505024 258 23424ft 422kts
11-Sep-20 22:11 39.686157 -105.681273 261 26522ft 439kts
11-Sep-20 22:12 39.664614 -105.839125 262 28760ft 450kts
11-Sep-20 22:12 39.645942 -105.974367 262 30316ft 460kts
11-Sep-20 22:14 39.619245 -106.167933 262 32065ft 472kts
11-Sep-20 22:14 39.600264 -106.306855 262 33731ft 465kts
11-Sep-20 22:15 39.577692 -106.465798 261 35116ft 464kts
11-Sep-20 22:16 39.553894 -106.630270 261 36367ft 463kts
11-Sep-20 22:17 39.511745 -106.788952 250 37471ft 468kts
11-Sep-20 22:18 39.462457 -106.944719 250 38336ft 469kts
11-Sep-20 22:19 39.411608 -107.104725 250 38375ft 491kts
11-Sep-20 22:20 39.357927 -107.269624 248 38365ft 499kts
11-Sep-20 22:21 39.300437 -107.432949 248 38348ft 499kts
11-Sep-20 22:22 39.243228 -107.595693 248 38334ft 499kts
11-Sep-20 22:23 39.187075 -107.758031 248 38328ft 492kts
11-Sep-20 22:24 39.130825 -107.918277 248 38314ft 485kts
11-Sep-20 22:25 39.075685 -108.074157 248 38298ft 477kts
11-Sep-20 22:26 39.019250 -108.232772 248 38284ft 498kts
11-Sep-20 22:27 38.961089 -108.395343 247 38274ft 500kts
11-Sep-20 22:28 38.902917 -108.557056 247 38269ft 499kts
11-Sep-20 22:29 38.844212 -108.719361 247 38267ft 500kts
11-Sep-20 22:30 38.785572 -108.880603 247 38262ft 500kts
11-Sep-20 22:31 38.726567 -109.041971 247 38264ft 500kts
11-Sep-20 22:32 38.667260 -109.203293 247 38253ft 501kts
11-Sep-20 22:33 38.607720 -109.364379 247 38240ft 501kts
11-Sep-20 22:34 38.547670 -109.525973 246 38229ft 501kts
11-Sep-20 22:35 38.487635 -109.686667 246 38227ft 502kts
11-Sep-20 22:36 38.427300 -109.847307 246 38235ft 502kts
11-Sep-20 22:37 38.366702 -110.007802 246 38241ft 502kts
11-Sep-20 22:38 38.305919 -110.167928 246 38247ft 503kts
11-Sep-20 22:39 38.244873 -110.327909 246 38248ft 502kts
11-Sep-20 22:40 38.183560 -110.487754 246 38246ft 502kts
11-Sep-20 22:41 38.121970 -110.647490 246 38245ft 503kts
11-Sep-20 22:42 38.060363 -110.806441 246 38249ft 503kts
11-Sep-20 22:43 37.998148 -110.966137 246 38250ft 503kts
11-Sep-20 22:44 37.936031 -111.124768 245 38284ft 503kts
11-Sep-20 22:45 37.873535 -111.283546 245 38324ft 503kts
11-Sep-20 22:46 37.810788 -111.442161 245 38351ft 504kts
11-Sep-20 22:47 37.747822 -111.600526 245 38348ft 505kts
11-Sep-20 22:48 37.684438 -111.759141 245 38377ft 505kts
11-Sep-20 22:49 37.621321 -111.917079 245 38402ft 505kts
11-Sep-20 22:50 37.557375 -112.074891 245 38413ft 505kts
11-Sep-20 22:51 37.492584 -112.221176 240 38079ft 455kts
11-Sep-20 22:52 37.426530 -112.356815 240 35927ft 460kts
11-Sep-20 22:53 37.359944 -112.494260 240 34267ft 448kts
11-Sep-20 22:54 37.298912 -112.621825 241 33899ft 411kts
11-Sep-20 22:55 37.240182 -112.743250 240 32630ft 402kts
11-Sep-20 22:56 37.182515 -112.861828 240 31432ft 392kts
11-Sep-20 22:57 37.126173 -112.977242 240 30259ft 383kts
11-Sep-20 22:58 37.070663 -113.090554 240 29027ft 378kts
11-Sep-20 22:59 37.015781 -113.202207 240 27816ft 374kts
11-Sep-20 23:00 36.961604 -113.312056 240 26667ft 370kts
11-Sep-20 23:01 36.907652 -113.421094 240 25562ft 366kts
11-Sep-20 23:02 36.854297 -113.528583 240 24513ft 362kts
11-Sep-20 23:03 36.801189 -113.635230 239 23106ft 358kts
11-Sep-20 23:04 36.749029 -113.739664 239 21491ft 351kts
11-Sep-20 23:05 36.698038 -113.842112 239 19906ft 344kts
11-Sep-20 23:06 36.647797 -113.941759 239 18351ft 337kts
11-Sep-20 23:07 36.598127 -114.040017 239 16752ft 332kts
11-Sep-20 23:08 36.549626 -114.135804 239 15497ft 320kts
11-Sep-20 23:09 36.491215 -114.219929 225 14499ft 333kts
11-Sep-20 23:10 36.427175 -114.298067 225 13503ft 312kts
11-Sep-20 23:11 36.365009 -114.373846 225 12538ft 311kts
11-Sep-20 23:12 36.303435 -114.448790 225 11581ft 308kts
11-Sep-20 23:13 36.242713 -114.522910 224 10633ft 304kts
11-Sep-20 23:14 36.183767 -114.594160 224 9702ft 287kts
11-Sep-20 23:15 36.126505 -114.663219 224 8809ft 282kts
11-Sep-20 23:16 36.077024 -114.732545 253 8021ft 260kts
11-Sep-20 23:17 36.073696 -114.825071 271 6633ft 269kts
11-Sep-20 23:18 36.073847 -114.914267 270 5494ft 245kts
11-Sep-20 23:19 36.073791 -114.986245 270 4377ft 181kts
11-Sep-20 23:20 36.073738 -115.047672 270 3421ft 168kts
11-Sep-20 23:21 36.073613 -115.102544 269 2827ft 157kts
11-Sep-20 23:22 36.073594 -115.151935 271 2194ft 48kts
11-Sep-20 23:23 36.074990 -115.155716 305 2194ft 0kts
11-Sep-20 23:24 36.074991 -115.155717 305 2194ft 0kts
11-Sep-20 23:25 36.077144 -115.158164 342 2194ft 15kts
11-Sep-20 23:26 36.078050 -115.154298 90 2194ft 12kts
11-Sep-20 23:27 36.078707 -115.150592 77 2194ft 10kts
11-Sep-20 23:28 36.079605 -115.148190 17 2194ft 8kts
11-Sep-20 23:29 36.080156 -115.147474 56 2194ft 0kts
11-Sep-20 23:30 36.080156 -115.147474 56 2194ft 0kts

Navigation Log

Ident Type
Flight plan parsing failed, navigation log unavailable